Time;durP1;ratioP1;P1;durP2;ratioP2;P2;SDS_P1;SDS_P2;PMS_P1;PMS_P2;Temp;Humidity;BMP_temperature;BMP_pressure;BME280_temperature;BME280_humidity;BME280_pressure;Samples;Min_cycle;Max_cycle;Signal;HPM_P1;HPM_P2
2021/09/07 00:00:48;;;;;;;1.50;0.90;;;17.70;98.20;;;;;;4957981;28;20489;-76
2021/09/07 00:03:16;;;;;;;1.50;0.90;;;17.70;98.20;;;;;;4975847;28;20458;-76
2021/09/07 00:05:44;;;;;;;1.80;1.47;;;17.70;98.20;;;;;;4968978;28;20568;-76
2021/09/07 00:08:11;;;;;;;1.50;1.00;;;17.70;98.20;;;;;;4957092;28;20533;-76
2021/09/07 00:10:38;;;;;;;1.50;1.00;;;17.60;98.20;;;;;;4970237;28;20957;-76
2021/09/07 00:13:05;;;;;;;1.50;0.90;;;17.60;98.20;;;;;;4973103;28;20799;-76
2021/09/07 00:15:31;;;;;;;1.50;1.00;;;17.60;98.20;;;;;;4963723;28;20677;-76
2021/09/07 00:17:58;;;;;;;1.50;1.00;;;17.60;98.20;;;;;;4972239;28;20541;-76
2021/09/07 00:20:25;;;;;;;1.50;1.00;;;17.60;98.20;;;;;;4968348;28;20458;-76
2021/09/07 00:22:53;;;;;;;1.50;1.00;;;17.60;98.20;;;;;;4973771;28;20886;-76
2021/09/07 00:25:20;;;;;;;1.50;0.90;;;17.60;98.20;;;;;;4966108;28;20497;-76
2021/09/07 00:27:47;;;;;;;1.50;1.00;;;17.60;98.20;;;;;;4972806;28;20481;-76
2021/09/07 00:30:14;;;;;;;1.50;1.00;;;17.60;98.20;;;;;;4968828;28;20477;-76
2021/09/07 00:32:41;;;;;;;1.50;1.00;;;17.60;98.20;;;;;;4971778;28;20512;-76
2021/09/07 00:35:11;;;;;;;1.50;1.00;;;17.60;98.20;;;;;;4970990;28;20462;-76
2021/09/07 00:37:38;;;;;;;1.50;1.00;;;17.60;98.20;;;;;;4974310;28;20852;-76
2021/09/07 00:40:09;;;;;;;1.50;0.90;;;17.60;98.20;;;;;;4973594;28;20465;-76
2021/09/07 00:42:36;;;;;;;1.50;0.90;;;17.60;98.20;;;;;;4971633;28;20491;-77
2021/09/07 00:45:04;;;;;;;1.50;1.00;;;17.60;98.20;;;;;;4971567;28;20888;-76
2021/09/07 00:47:31;;;;;;;1.50;0.97;;;17.50;98.20;;;;;;4972564;28;20488;-76
2021/09/07 00:49:59;;;;;;;1.50;0.93;;;17.50;98.20;;;;;;4973519;28;20741;-76
2021/09/07 00:52:26;;;;;;;1.50;0.97;;;17.50;98.20;;;;;;4972329;28;20593;-76
2021/09/07 00:54:54;;;;;;;1.50;0.90;;;17.40;98.20;;;;;;4973357;28;20457;-75
2021/09/07 00:57:25;;;;;;;1.50;1.00;;;17.40;98.20;;;;;;4970417;28;20943;-75
2021/09/07 00:59:52;;;;;;;1.50;1.00;;;17.40;98.20;;;;;;4974022;28;20461;-76
2021/09/07 01:02:19;;;;;;;1.50;1.00;;;17.30;98.20;;;;;;4965205;28;21034;-76
2021/09/07 01:04:46;;;;;;;1.50;0.90;;;17.30;98.20;;;;;;4973322;28;20465;-75
2021/09/07 01:07:13;;;;;;;1.50;1.00;;;17.30;98.20;;;;;;4969393;28;20489;-76
2021/09/07 01:09:40;;;;;;;1.50;0.97;;;17.30;98.20;;;;;;4975207;28;20509;-76
2021/09/07 01:12:08;;;;;;;1.50;1.00;;;17.30;98.20;;;;;;4971098;28;20485;-75
2021/09/07 01:14:39;;;;;;;1.50;0.90;;;17.30;98.20;;;;;;4974196;28;20478;-76
2021/09/07 01:17:11;;;;;;;1.50;0.97;;;17.20;98.20;;;;;;4967564;28;20484;-76
2021/09/07 01:19:37;;;;;;;1.50;1.00;;;17.20;98.20;;;;;;4974568;28;20499;-76
2021/09/07 01:22:04;;;;;;;1.50;1.00;;;17.20;98.20;;;;;;4969771;28;20491;-76
2021/09/07 01:24:34;;;;;;;1.50;1.00;;;17.20;98.20;;;;;;4975461;28;20707;-76
2021/09/07 01:27:05;;;;;;;1.50;1.00;;;17.20;98.20;;;;;;4969174;28;20476;-76
2021/09/07 01:29:32;;;;;;;1.50;0.93;;;17.20;98.20;;;;;;4975334;28;20520;-76
2021/09/07 01:31:59;;;;;;;1.50;1.00;;;17.20;98.20;;;;;;4963510;28;20874;-76
2021/09/07 01:34:26;;;;;;;1.70;1.40;;;17.20;98.20;;;;;;4975730;28;20987;-77
2021/09/07 01:36:53;;;;;;;1.50;0.90;;;17.20;98.20;;;;;;4966407;28;20500;-76
2021/09/07 01:39:20;;;;;;;1.50;0.90;;;17.20;98.20;;;;;;4972358;28;20505;-77
2021/09/07 01:41:49;;;;;;;1.50;1.00;;;17.20;98.20;;;;;;4967718;28;20514;-76
2021/09/07 01:44:16;;;;;;;1.50;0.90;;;17.10;98.20;;;;;;4976520;28;20473;-76
2021/09/07 01:46:43;;;;;;;1.53;1.10;;;17.10;98.20;;;;;;4966790;28;20507;-76
2021/09/07 01:49:10;;;;;;;1.50;1.00;;;17.10;98.20;;;;;;4970999;28;20957;-76
2021/09/07 01:51:38;;;;;;;1.50;1.00;;;17.00;98.20;;;;;;4966361;28;20891;-76
2021/09/07 01:54:05;;;;;;;1.70;1.20;;;17.00;98.20;;;;;;4977559;28;20875;-75
2021/09/07 01:56:32;;;;;;;1.50;1.00;;;17.00;98.20;;;;;;4950401;28;20537;-76
2021/09/07 01:59:00;;;;;;;1.80;1.37;;;16.90;98.20;;;;;;4972608;28;20470;-75
2021/09/07 02:01:27;;;;;;;1.50;1.00;;;16.90;98.20;;;;;;4963559;28;20548;-76
2021/09/07 02:03:54;;;;;;;1.50;0.93;;;16.90;98.20;;;;;;4980238;28;20989;-75
2021/09/07 02:06:20;;;;;;;1.50;1.10;;;16.90;98.20;;;;;;4962213;28;20488;-76
2021/09/07 02:08:47;;;;;;;1.50;0.90;;;16.90;98.20;;;;;;4983291;28;20845;-78
2021/09/07 02:11:14;;;;;;;1.50;1.00;;;16.90;98.20;;;;;;4966320;28;20484;-77
2021/09/07 02:13:41;;;;;;;1.50;0.93;;;16.90;98.20;;;;;;4984609;28;20737;-77
2021/09/07 02:16:09;;;;;;;1.50;1.00;;;16.90;98.20;;;;;;4963891;28;20516;-75
2021/09/07 02:18:35;;;;;;;1.50;1.00;;;16.90;98.20;;;;;;4985274;28;20465;-77
2021/09/07 02:21:02;;;;;;;1.50;1.00;;;16.80;98.20;;;;;;4963652;28;20972;-76
2021/09/07 02:23:29;;;;;;;1.50;0.93;;;16.80;98.20;;;;;;4979533;28;20699;-77
2021/09/07 02:25:56;;;;;;;1.50;1.00;;;16.80;98.20;;;;;;4958953;28;20497;-77
2021/09/07 02:28:23;;;;;;;1.50;0.90;;;16.80;98.20;;;;;;4975791;28;21183;-77
2021/09/07 02:30:50;;;;;;;1.50;0.90;;;16.80;98.20;;;;;;4959316;28;20473;-76
2021/09/07 02:33:19;;;;;;;1.50;1.00;;;16.80;98.20;;;;;;4992027;28;20485;-77
2021/09/07 02:35:45;;;;;;;1.50;1.00;;;16.80;98.20;;;;;;4972930;28;20492;-77
2021/09/07 02:38:12;;;;;;;1.50;1.00;;;16.80;98.20;;;;;;4960653;28;20477;-77
2021/09/07 02:40:39;;;;;;;1.50;1.00;;;16.80;98.20;;;;;;4973175;28;20840;-77
2021/09/07 02:43:05;;;;;;;1.50;0.90;;;16.80;98.20;;;;;;4965503;28;20556;-76
2021/09/07 02:45:32;;;;;;;1.50;1.00;;;16.80;98.20;;;;;;4968846;28;20489;-76
2021/09/07 02:47:59;;;;;;;1.50;1.00;;;16.80;98.20;;;;;;4963257;28;20490;-76
2021/09/07 02:50:27;;;;;;;1.50;1.00;;;16.80;98.20;;;;;;4962223;28;20474;-76
2021/09/07 02:52:54;;;;;;;1.50;1.00;;;16.70;98.20;;;;;;4972816;28;20480;-76
2021/09/07 02:55:20;;;;;;;1.50;1.00;;;16.70;98.20;;;;;;4969459;28;20486;-77
2021/09/07 02:57:47;;;;;;;1.50;1.00;;;16.70;98.20;;;;;;4972885;28;20894;-77
2021/09/07 03:00:14;;;;;;;1.70;1.40;;;16.70;98.20;;;;;;4968743;28;20462;-76
2021/09/07 03:02:41;;;;;;;1.50;1.00;;;16.70;98.20;;;;;;4972076;28;20489;-76
2021/09/07 03:05:09;;;;;;;1.70;1.60;;;16.70;98.20;;;;;;4968387;28;20466;-76
2021/09/07 03:07:37;;;;;;;1.50;1.00;;;16.70;98.20;;;;;;4968555;28;20489;-76
2021/09/07 03:10:04;;;;;;;1.50;1.00;;;16.70;98.20;;;;;;4970606;28;20958;-76
2021/09/07 03:12:31;;;;;;;1.50;0.90;;;16.70;98.20;;;;;;4970947;28;20492;-77
2021/09/07 03:14:58;;;;;;;1.53;1.00;;;16.70;98.20;;;;;;4968628;28;20545;-75
2021/09/07 03:17:25;;;;;;;1.50;1.10;;;16.60;98.20;;;;;;4964531;28;20536;-76
2021/09/07 03:19:51;;;;;;;1.50;0.90;;;16.60;98.20;;;;;;4970476;28;20454;-77
2021/09/07 03:22:18;;;;;;;1.50;1.00;;;16.60;98.20;;;;;;4964886;28;20473;-76
2021/09/07 03:24:46;;;;;;;1.50;0.90;;;16.60;98.20;;;;;;4971303;28;20476;-76
2021/09/07 03:27:13;;;;;;;1.50;0.97;;;16.60;98.20;;;;;;4963904;28;20488;-77
2021/09/07 03:29:40;;;;;;;1.50;0.90;;;16.50;98.20;;;;;;4972918;28;20462;-76
2021/09/07 03:32:07;;;;;;;1.50;0.90;;;16.50;98.20;;;;;;4966493;28;20485;-77
2021/09/07 03:34:34;;;;;;;1.50;1.00;;;16.50;98.20;;;;;;4970032;28;20851;-76
2021/09/07 03:37:01;;;;;;;1.50;1.00;;;16.50;98.20;;;;;;4966961;28;20505;-76
2021/09/07 03:39:27;;;;;;;1.53;1.10;;;16.50;98.20;;;;;;4972842;28;20525;-77
2021/09/07 03:41:56;;;;;;;1.50;1.00;;;16.50;98.20;;;;;;4965303;28;20483;-75
2021/09/07 03:44:22;;;;;;;1.50;1.00;;;16.40;98.20;;;;;;4974622;28;20481;-76
2021/09/07 03:46:49;;;;;;;1.50;1.00;;;16.40;98.20;;;;;;4964757;28;20857;-77
2021/09/07 03:49:16;;;;;;;1.50;1.00;;;16.40;98.20;;;;;;4975751;28;20494;-77
2021/09/07 03:51:43;;;;;;;1.57;1.00;;;16.40;98.20;;;;;;4965178;28;20504;-75
2021/09/07 03:54:09;;;;;;;1.50;1.10;;;16.40;98.20;;;;;;4976730;28;20957;-77
2021/09/07 03:56:36;;;;;;;1.50;1.00;;;16.40;98.20;;;;;;4954544;28;20526;-77
2021/09/07 03:59:05;;;;;;;1.50;1.00;;;16.40;98.20;;;;;;4961776;28;20469;-76
2021/09/07 04:01:31;;;;;;;1.50;1.00;;;16.40;98.20;;;;;;4962730;28;20618;-76
2021/09/07 04:03:58;;;;;;;1.50;1.00;;;16.40;98.20;;;;;;4978545;28;20836;-77
2021/09/07 04:06:25;;;;;;;1.50;1.00;;;16.40;98.20;;;;;;4963199;28;20509;-74
2021/09/07 04:08:51;;;;;;;1.50;1.10;;;16.50;98.20;;;;;;4981765;28;20485;-77
2021/09/07 04:11:18;;;;;;;1.50;0.90;;;16.50;98.20;;;;;;4967261;28;20480;-77
2021/09/07 04:13:45;;;;;;;1.50;0.90;;;16.50;98.20;;;;;;4983444;28;20461;-75
2021/09/07 04:16:13;;;;;;;1.50;1.00;;;16.50;98.20;;;;;;4964113;28;20573;-76
2021/09/07 04:18:40;;;;;;;1.50;0.90;;;16.50;98.20;;;;;;4979488;28;20465;-77
2021/09/07 04:21:08;;;;;;;1.50;0.90;;;16.50;98.20;;;;;;4961260;28;21154;-77
2021/09/07 04:23:35;;;;;;;1.50;0.90;;;16.50;98.20;;;;;;4977387;28;20567;-74
2021/09/07 04:26:01;;;;;;;1.50;1.00;;;16.50;98.20;;;;;;4962660;28;20865;-77
2021/09/07 04:28:28;;;;;;;1.50;1.00;;;16.50;98.20;;;;;;4983356;28;20497;-77
2021/09/07 04:30:55;;;;;;;1.50;1.00;;;16.50;98.20;;;;;;4961463;28;20462;-77
2021/09/07 04:33:23;;;;;;;1.50;1.00;;;16.60;98.20;;;;;;4986860;28;20470;-75
2021/09/07 04:35:50;;;;;;;1.50;0.90;;;16.60;98.20;;;;;;4961229;28;21265;-77
2021/09/07 04:38:16;;;;;;;1.50;1.00;;;16.60;98.20;;;;;;4984651;28;20468;-77
2021/09/07 04:40:43;;;;;;;1.50;1.00;;;16.60;98.20;;;;;;4971593;28;20474;-77
2021/09/07 04:43:10;;;;;;;1.50;1.00;;;16.60;98.20;;;;;;4976477;28;20500;-76
2021/09/07 04:45:37;;;;;;;1.50;1.00;;;16.60;98.20;;;;;;4972609;28;20489;-77
2021/09/07 04:48:04;;;;;;;1.53;1.10;;;16.60;98.20;;;;;;4971351;28;20477;-76
2021/09/07 04:50:34;;;;;;;1.50;1.00;;;16.70;98.20;;;;;;4968107;28;20745;-76
2021/09/07 04:53:01;;;;;;;1.50;1.00;;;16.70;98.20;;;;;;4969774;28;20489;-75
2021/09/07 04:55:28;;;;;;;1.50;0.90;;;16.70;98.20;;;;;;4971485;28;20551;-75
2021/09/07 04:57:55;;;;;;;1.50;1.10;;;16.70;98.20;;;;;;4976473;28;21115;-75
2021/09/07 05:00:22;;;;;;;1.50;0.90;;;16.70;98.20;;;;;;4967987;28;20492;-76
2021/09/07 05:02:49;;;;;;;1.50;1.00;;;16.70;98.20;;;;;;4967895;28;20540;-75
2021/09/07 05:05:16;;;;;;;1.50;0.90;;;16.70;98.20;;;;;;4967936;28;20548;-76
2021/09/07 05:07:46;;;;;;;1.50;1.00;;;16.70;98.20;;;;;;4973162;28;20501;-76
2021/09/07 05:10:13;;;;;;;1.60;1.10;;;16.70;98.20;;;;;;4970873;28;20484;-76
2021/09/07 05:12:40;;;;;;;1.50;0.90;;;16.80;98.20;;;;;;4971322;28;20480;-76
2021/09/07 05:15:08;;;;;;;1.50;1.00;;;16.80;98.20;;;;;;4968446;28;20466;-76
2021/09/07 05:17:35;;;;;;;1.70;1.30;;;16.80;98.20;;;;;;4972272;28;20488;-76
2021/09/07 05:20:04;;;;;;;1.50;1.00;;;16.90;98.20;;;;;;4969369;28;20478;-76
2021/09/07 05:22:31;;;;;;;1.50;1.00;;;16.90;98.20;;;;;;4970651;28;20910;-76
2021/09/07 05:25:01;;;;;;;1.50;0.90;;;16.90;98.20;;;;;;4970767;28;20477;-76
2021/09/07 05:27:28;;;;;;;1.50;0.90;;;17.00;98.20;;;;;;4974022;28;20500;-75
2021/09/07 05:29:55;;;;;;;1.50;1.00;;;17.00;98.20;;;;;;4973503;28;20920;-75
2021/09/07 05:32:22;;;;;;;1.50;0.90;;;17.00;98.20;;;;;;4964535;28;20526;-75
2021/09/07 05:34:49;;;;;;;1.50;1.00;;;17.00;98.20;;;;;;4972199;28;20477;-75
2021/09/07 05:37:16;;;;;;;1.50;1.10;;;17.10;98.20;;;;;;4970518;28;20572;-75
2021/09/07 05:39:43;;;;;;;1.50;1.20;;;17.10;98.20;;;;;;4979628;28;20462;-75
2021/09/07 05:42:12;;;;;;;1.50;1.00;;;17.10;98.20;;;;;;4975103;28;20480;-75
2021/09/07 05:44:38;;;;;;;1.50;1.00;;;17.10;98.20;;;;;;4979818;28;20470;-76
2021/09/07 05:47:05;;;;;;;1.50;1.00;;;17.20;98.20;;;;;;4958535;28;20490;-76
2021/09/07 05:49:32;;;;;;;1.50;1.00;;;17.20;98.20;;;;;;4971273;28;20482;-76
2021/09/07 05:51:59;;;;;;;1.50;0.90;;;17.20;98.20;;;;;;4966857;28;20552;-76
2021/09/07 05:54:26;;;;;;;1.50;1.00;;;17.20;98.20;;;;;;4974599;28;20473;-76
2021/09/07 05:56:54;;;;;;;1.50;1.00;;;17.20;98.20;;;;;;4965116;28;21228;-76
2021/09/07 05:59:23;;;;;;;1.50;1.00;;;17.30;98.20;;;;;;4972342;28;20462;-75
2021/09/07 06:01:49;;;;;;;1.50;0.90;;;17.30;98.20;;;;;;4963300;28;20576;-76
2021/09/07 06:04:19;;;;;;;1.50;0.90;;;17.30;98.20;;;;;;4973780;28;20470;-77
2021/09/07 06:06:46;;;;;;;1.50;0.93;;;17.30;98.20;;;;;;4963425;28;20493;-76
2021/09/07 06:09:28;;;;;;;1.53;1.00;;;17.40;98.20;;;;;;5000563;23;20502;-78
2021/09/07 06:12:19;;;;;;;1.50;1.00;;;17.30;98.20;;;;;;4979739;28;20492;-79
2021/09/07 06:14:52;;;;;;;1.50;0.90;;;17.40;98.20;;;;;;4982463;28;20462;-79
2021/09/07 06:17:21;;;;;;;1.50;0.90;;;17.40;98.20;;;;;;4991744;28;20488;-79
2021/09/07 06:19:49;;;;;;;1.50;1.00;;;17.50;98.20;;;;;;4959899;28;21025;-79
2021/09/07 06:22:19;;;;;;;1.50;1.03;;;17.60;98.20;;;;;;4964848;28;20568;-79
2021/09/07 06:24:46;;;;;;;1.50;1.00;;;17.70;98.20;;;;;;4975449;28;20460;-79
2021/09/07 06:27:15;;;;;;;1.50;1.00;;;17.70;98.20;;;;;;4971311;28;20540;-79
2021/09/07 06:29:45;;;;;;;1.50;0.90;;;17.80;98.20;;;;;;4966304;28;20505;-79
2021/09/07 06:32:16;;;;;;;1.50;0.90;;;17.80;98.20;;;;;;4963623;28;20512;-79
2021/09/07 06:34:43;;;;;;;1.50;0.90;;;17.90;98.20;;;;;;4961740;28;20469;-79
2021/09/07 06:37:10;;;;;;;1.50;0.90;;;18.00;98.20;;;;;;4950529;28;20481;-79
2021/09/07 06:39:40;;;;;;;1.50;0.90;;;18.00;98.20;;;;;;4957080;28;20493;-79
2021/09/07 06:42:13;;;;;;;1.50;1.00;;;18.10;98.20;;;;;;4966221;28;20493;-79
2021/09/07 06:44:40;;;;;;;1.50;1.00;;;18.10;98.20;;;;;;4972409;28;20465;-79
2021/09/07 06:47:07;;;;;;;1.53;1.00;;;18.10;98.20;;;;;;4951770;28;20525;-79
2021/09/07 06:49:35;;;;;;;1.50;1.00;;;18.20;98.20;;;;;;4968722;28;20501;-79
2021/09/07 06:52:02;;;;;;;1.50;0.90;;;18.30;98.20;;;;;;4961301;28;20485;-80
2021/09/07 06:54:29;;;;;;;1.50;0.90;;;18.30;98.20;;;;;;4968877;28;20466;-80
2021/09/07 06:56:56;;;;;;;1.53;1.00;;;18.40;98.20;;;;;;4966738;28;20935;-79
2021/09/07 06:59:23;;;;;;;1.50;0.90;;;18.40;98.20;;;;;;4962681;28;20605;-79
2021/09/07 07:01:50;;;;;;;1.50;1.00;;;18.50;98.20;;;;;;4961197;28;20489;-80
2021/09/07 07:04:17;;;;;;;1.50;1.00;;;18.50;98.20;;;;;;4966561;28;20865;-79
2021/09/07 07:06:48;;;;;;;1.50;0.97;;;18.60;98.20;;;;;;4945943;28;20945;-79
2021/09/07 07:09:15;;;;;;;1.50;1.00;;;18.70;98.20;;;;;;4958787;28;20814;-79
2021/09/07 07:11:42;;;;;;;1.50;0.90;;;18.70;98.20;;;;;;4954446;28;21023;-79
2021/09/07 07:14:09;;;;;;;1.50;1.00;;;18.80;98.20;;;;;;4971688;28;20849;-80
2021/09/07 07:16:36;;;;;;;1.60;1.00;;;18.90;98.20;;;;;;4952285;28;20489;-80
2021/09/07 07:19:03;;;;;;;1.50;0.90;;;19.00;98.20;;;;;;4971205;28;20482;-79
2021/09/07 07:21:30;;;;;;;1.50;0.90;;;19.10;98.20;;;;;;4964544;28;20563;-80
2021/09/07 07:23:58;;;;;;;1.50;0.90;;;19.20;98.20;;;;;;4964452;28;20521;-78
2021/09/07 07:26:25;;;;;;;1.60;1.00;;;19.20;98.20;;;;;;4952841;28;20514;-79
2021/09/07 07:28:52;;;;;;;1.50;1.00;;;19.30;98.20;;;;;;4977949;28;20544;-80
2021/09/07 07:31:19;;;;;;;1.50;0.93;;;19.30;98.20;;;;;;4954922;28;20888;-79
2021/09/07 07:33:46;;;;;;;1.50;0.90;;;19.40;98.20;;;;;;4974310;28;20531;-79
2021/09/07 07:36:13;;;;;;;1.57;1.00;;;19.50;98.20;;;;;;4951111;28;20928;-80
2021/09/07 07:38:40;;;;;;;1.50;0.90;;;19.60;98.20;;;;;;4969542;28;20585;-80
2021/09/07 07:41:08;;;;;;;1.50;0.90;;;19.70;98.20;;;;;;4943962;28;20539;-79
2021/09/07 07:43:43;;;;;;;1.53;0.90;;;19.80;98.20;;;;;;4973015;28;20585;-79
2021/09/07 07:46:10;;;;;;;1.50;0.90;;;19.80;98.20;;;;;;4943452;28;21123;-80
2021/09/07 07:48:40;;;;;;;1.57;1.10;;;19.90;98.20;;;;;;4960948;28;20529;-79
2021/09/07 07:51:07;;;;;;;1.50;1.00;;;20.00;98.20;;;;;;4958113;28;20504;-80
2021/09/07 07:53:34;;;;;;;1.50;0.90;;;20.00;98.20;;;;;;4964667;28;20477;-80
2021/09/07 07:56:01;;;;;;;1.50;1.00;;;20.10;98.20;;;;;;4956956;28;20524;-79
2021/09/07 07:58:29;;;;;;;1.50;0.90;;;20.20;97.90;;;;;;4960373;28;20496;-80
2021/09/07 08:00:56;;;;;;;1.50;0.90;;;20.30;97.40;;;;;;4946842;28;20554;-79
2021/09/07 08:03:23;;;;;;;1.50;0.90;;;20.40;97.70;;;;;;4979017;28;20814;-80
2021/09/07 08:05:50;;;;;;;1.50;0.90;;;20.50;97.00;;;;;;4961494;28;20458;-79
2021/09/07 08:08:17;;;;;;;1.50;0.90;;;20.50;96.80;;;;;;4972696;28;20498;-80
2021/09/07 08:10:44;;;;;;;1.50;0.97;;;20.60;96.10;;;;;;4968661;28;20492;-79
2021/09/07 08:13:11;;;;;;;1.60;1.20;;;20.60;96.40;;;;;;4942228;28;20497;-80
2021/09/07 08:15:39;;;;;;;1.50;0.90;;;20.70;96.70;;;;;;4969242;28;20747;-80
2021/09/07 08:18:06;;;;;;;1.50;0.90;;;20.80;96.50;;;;;;4973580;28;20878;-79
2021/09/07 08:20:33;;;;;;;1.53;1.00;;;20.90;95.80;;;;;;4969798;28;20472;-80
2021/09/07 08:23:02;;;;;;;1.50;0.90;;;21.00;95.10;;;;;;4969571;28;20523;-80
2021/09/07 08:25:30;;;;;;;1.53;0.90;;;21.00;95.40;;;;;;4955056;28;20545;-80
2021/09/07 08:27:57;;;;;;;1.53;0.90;;;21.10;94.80;;;;;;4961925;28;20855;-79
2021/09/07 08:30:24;;;;;;;1.53;0.90;;;21.20;94.50;;;;;;4971698;28;20508;-79
2021/09/07 08:32:52;;;;;;;1.50;0.90;;;21.30;93.40;;;;;;4975726;28;20492;-80
2021/09/07 08:35:19;;;;;;;1.50;0.90;;;21.40;93.70;;;;;;4955021;28;20458;-80
2021/09/07 08:37:46;;;;;;;1.50;0.90;;;21.50;93.40;;;;;;4974950;28;20519;-79
2021/09/07 08:40:14;;;;;;;1.50;0.90;;;21.60;92.30;;;;;;4970649;28;21060;-80
2021/09/07 08:42:41;;;;;;;1.53;0.90;;;21.70;92.30;;;;;;4975647;28;20941;-80
2021/09/07 08:45:13;;;;;;;1.50;0.90;;;21.80;93.10;;;;;;4972411;28;20468;-79
2021/09/07 08:47:40;;;;;;;1.50;1.00;;;21.90;92.40;;;;;;4967379;28;20591;-80
2021/09/07 08:50:09;;;;;;;1.50;0.90;;;22.00;91.50;;;;;;4954244;28;20482;-80
2021/09/07 08:52:36;;;;;;;1.53;0.90;;;22.10;91.50;;;;;;4955035;28;20573;-80
2021/09/07 08:55:04;;;;;;;1.50;0.90;;;22.20;90.70;;;;;;4973028;28;20553;-80
2021/09/07 08:57:31;;;;;;;1.50;0.90;;;22.30;90.90;;;;;;4963004;28;20486;-80
2021/09/07 09:00:00;;;;;;;1.50;1.00;;;22.30;90.60;;;;;;4961575;28;20821;-80
2021/09/07 09:02:27;;;;;;;1.50;0.90;;;22.20;90.80;;;;;;4971073;28;20498;-80
2021/09/07 09:04:57;;;;;;;1.50;0.90;;;22.10;91.10;;;;;;4966633;28;20977;-80
2021/09/07 09:07:27;;;;;;;1.50;0.90;;;22.10;91.70;;;;;;4971109;28;20507;-80
2021/09/07 09:09:55;;;;;;;1.50;0.90;;;22.20;91.40;;;;;;4978548;28;20482;-80
2021/09/07 09:12:30;;;;;;;1.50;0.90;;;22.30;90.60;;;;;;4975594;28;20484;-81
2021/09/07 09:14:58;;;;;;;1.50;0.90;;;22.50;90.70;;;;;;4987266;28;20948;-80
2021/09/07 09:17:30;;;;;;;1.50;0.90;;;22.70;89.30;;;;;;4983098;28;20489;-80
2021/09/07 09:19:59;;;;;;;1.50;0.90;;;22.90;89.90;;;;;;4975829;28;20521;-80
2021/09/07 09:22:49;;;;;;;1.50;0.90;;;23.20;87.80;;;;;;4973707;28;20496;-80
2021/09/07 09:25:39;;;;;;;1.50;0.90;;;23.40;85.00;;;;;;4983134;28;20461;-80
2021/09/07 09:28:23;;;;;;;1.50;0.90;;;23.50;86.30;;;;;;4974679;28;20954;-80
2021/09/07 09:30:53;;;;;;;1.50;0.90;;;23.70;86.30;;;;;;4968562;28;21008;-81
2021/09/07 09:33:22;;;;;;;1.50;0.90;;;23.90;85.20;;;;;;4979381;28;21027;-80
2021/09/07 09:35:55;;;;;;;1.50;0.90;;;24.10;84.80;;;;;;4962340;28;20474;-80
2021/09/07 09:38:26;;;;;;;1.50;0.90;;;24.20;83.20;;;;;;4986007;28;20486;-80
2021/09/07 09:41:01;;;;;;;1.50;0.90;;;24.30;82.20;;;;;;4962663;28;20906;-79
2021/09/07 09:43:32;;;;;;;3.70;3.33;;;24.40;81.50;;;;;;4957437;28;20496;-81
2021/09/07 09:46:20;;;;;;;1.50;0.90;;;24.50;82.70;;;;;;4962347;28;20465;-80
2021/09/07 09:48:47;;;;;;;1.50;1.00;;;24.70;81.50;;;;;;4963577;28;20486;-81
2021/09/07 09:51:17;;;;;;;1.50;0.90;;;24.80;81.20;;;;;;4959238;28;20598;-80
2021/09/07 09:53:47;;;;;;;1.50;0.90;;;24.90;80.50;;;;;;4969742;28;20754;-80
2021/09/07 09:56:14;;;;;;;1.50;0.90;;;25.00;80.60;;;;;;4947417;28;21016;-80
2021/09/07 09:58:42;;;;;;;1.50;0.90;;;25.10;80.50;;;;;;4967172;28;20529;-81
2021/09/07 10:01:10;;;;;;;1.50;0.90;;;25.20;79.00;;;;;;4962301;28;20483;-80
2021/09/07 10:03:40;;;;;;;1.60;1.10;;;25.20;79.90;;;;;;4972637;28;20502;-80
2021/09/07 10:06:07;;;;;;;1.50;0.90;;;25.30;79.50;;;;;;4963763;28;20488;-81
2021/09/07 10:08:40;;;;;;;1.50;0.90;;;25.40;78.60;;;;;;4982121;28;20500;-80
2021/09/07 10:11:11;;;;;;;1.50;0.90;;;25.50;77.20;;;;;;4973477;28;20493;-79
2021/09/07 10:13:42;;;;;;;1.50;0.90;;;25.60;77.80;;;;;;4997063;28;20832;-79
2021/09/07 10:16:11;;;;;;;1.50;0.90;;;25.70;77.40;;;;;;4974140;28;20492;-79
2021/09/07 10:18:50;;;;;;;1.50;0.87;;;25.70;76.30;;;;;;4994568;28;20908;-79
2021/09/07 10:24:53;;;;;;;1.50;0.90;;;25.90;76.20;;;;;;4980953;28;20449;-80
2021/09/07 10:27:22;;;;;;;1.50;0.90;;;26.10;76.50;;;;;;4973185;28;20488;-79
2021/09/07 10:29:50;;;;;;;1.50;0.90;;;26.30;78.20;;;;;;4982854;28;20694;-79
2021/09/07 10:32:38;;;;;;;1.50;0.90;;;26.50;76.50;;;;;;4972009;28;20484;-80
2021/09/07 10:35:11;;;;;;;1.50;0.90;;;26.40;74.80;;;;;;4978463;28;20535;-79
2021/09/07 10:38:08;;;;;;;1.60;1.20;;;26.50;75.30;;;;;;4974232;28;20476;-79
2021/09/07 10:40:51;;;;;;;1.50;0.90;;;26.70;75.00;;;;;;4979052;28;20848;-80
2021/09/07 10:43:57;;;;;;;2.40;1.47;;;26.80;75.20;;;;;;4963311;28;20472;-79
2021/09/07 10:46:43;;;;;;;1.50;0.90;;;26.90;76.40;;;;;;4979435;28;20910;-79
2021/09/07 10:49:28;;;;;;;1.50;0.90;;;27.00;74.80;;;;;;4971805;28;20896;-79
2021/09/07 10:52:18;;;;;;;1.50;0.83;;;27.00;73.00;;;;;;4961240;28;20963;-80
2021/09/07 10:55:04;;;;;;;1.97;1.30;;;27.20;75.90;;;;;;4989543;28;20496;-80
2021/09/07 10:58:02;;;;;;;1.50;0.80;;;27.30;72.50;;;;;;4976498;28;20921;-81
2021/09/07 11:00:41;;;;;;;1.50;0.80;;;27.50;71.60;;;;;;4969113;28;20561;-79
2021/09/07 11:03:12;;;;;;;1.50;0.80;;;27.70;74.30;;;;;;4957353;28;20571;-79
2021/09/07 11:05:47;;;;;;;1.50;0.80;;;27.80;73.70;;;;;;4974894;28;20469;-80
2021/09/07 11:08:17;;;;;;;1.50;0.80;;;28.00;74.10;;;;;;4949383;28;20480;-79
2021/09/07 11:10:46;;;;;;;1.50;0.80;;;28.10;75.00;;;;;;4966210;28;20488;-81
2021/09/07 11:13:20;;;;;;;1.50;0.83;;;28.20;69.90;;;;;;4946093;28;20476;-80
2021/09/07 11:15:49;;;;;;;1.50;0.87;;;28.00;67.80;;;;;;4955484;28;20465;-81
2021/09/07 11:18:22;;;;;;;1.50;0.80;;;28.10;70.10;;;;;;4985121;28;20568;-81
2021/09/07 11:20:51;;;;;;;1.50;0.80;;;28.10;70.50;;;;;;4947614;28;20447;-81
2021/09/07 11:23:19;;;;;;;1.50;0.80;;;28.00;66.20;;;;;;4982055;28;20462;-81
2021/09/07 11:25:48;;;;;;;1.47;0.90;;;28.00;66.90;;;;;;4985575;28;20460;-80
2021/09/07 11:28:17;;;;;;;1.50;1.00;;;28.10;66.00;;;;;;4966416;28;20480;-80
2021/09/07 11:30:47;;;;;;;1.50;0.90;;;27.90;67.30;;;;;;4977867;28;20481;-81
2021/09/07 11:33:30;;;;;;;1.70;1.10;;;27.90;67.10;;;;;;4964185;28;20474;-81
2021/09/07 11:35:59;;;;;;;1.50;0.80;;;27.80;69.10;;;;;;4958796;28;20527;-81
2021/09/07 11:38:29;;;;;;;1.50;0.80;;;27.70;66.90;;;;;;4978198;28;20481;-81
2021/09/07 11:40:59;;;;;;;1.50;0.87;;;27.70;68.40;;;;;;4965136;28;20624;-80
2021/09/07 11:43:31;;;;;;;1.50;0.80;;;27.60;67.70;;;;;;4967047;28;20546;-78
2021/09/07 11:46:06;;;;;;;1.43;0.80;;;27.70;69.40;;;;;;4953208;28;20454;-80
2021/09/07 11:48:35;;;;;;;1.47;0.80;;;27.90;68.70;;;;;;4979612;28;20481;-79
2021/09/07 11:51:02;;;;;;;1.50;0.90;;;28.00;66.90;;;;;;4953346;28;20549;-79
2021/09/07 11:53:29;;;;;;;1.50;0.80;;;28.00;67.10;;;;;;4988264;28;20501;-80
2021/09/07 11:55:57;;;;;;;2.53;1.73;;;28.20;68.00;;;;;;4965857;28;20461;-80
2021/09/07 11:58:32;;;;;;;1.50;0.90;;;28.20;67.80;;;;;;4986182;28;20527;-79
2021/09/07 12:01:15;;;;;;;1.50;0.80;;;28.30;70.30;;;;;;4964387;28;20955;-79
2021/09/07 12:03:50;;;;;;;1.50;0.80;;;28.50;67.70;;;;;;4973190;28;20854;-78
2021/09/07 12:06:19;;;;;;;1.50;0.80;;;28.40;67.30;;;;;;4967932;28;20491;-79
2021/09/07 12:08:48;;;;;;;1.50;0.80;;;28.30;68.70;;;;;;4977783;28;20537;-79
2021/09/07 12:11:28;;;;;;;1.43;0.80;;;28.40;67.50;;;;;;4962661;28;20485;-80
2021/09/07 12:14:03;;;;;;;1.47;0.90;;;28.40;67.80;;;;;;4963982;28;20601;-79
2021/09/07 12:16:30;;;;;;;1.47;0.80;;;28.70;68.20;;;;;;4943472;28;20557;-80
2021/09/07 12:18:59;;;;;;;1.50;0.83;;;28.90;68.40;;;;;;4966475;28;20489;-79
2021/09/07 12:21:27;;;;;;;1.43;0.80;;;29.00;67.70;;;;;;4961037;28;21023;-80
2021/09/07 12:23:55;;;;;;;1.50;0.90;;;29.20;66.40;;;;;;4969259;28;20466;-80
2021/09/07 12:26:40;;;;;;;1.50;0.80;;;29.20;66.60;;;;;;4957693;28;20489;-80
2021/09/07 12:29:18;;;;;;;1.50;0.80;;;29.40;67.70;;;;;;4963931;28;20954;-79
2021/09/07 12:31:46;;;;;;;1.50;0.80;;;29.40;66.60;;;;;;4960223;28;20482;-79
2021/09/07 12:34:22;;;;;;;1.70;1.30;;;29.20;65.80;;;;;;4966735;28;20622;-79
2021/09/07 12:36:50;;;;;;;1.40;0.80;;;29.10;67.10;;;;;;4956693;28;20488;-79
2021/09/07 12:39:21;;;;;;;1.50;0.83;;;29.00;65.50;;;;;;4966267;28;20494;-79
2021/09/07 12:41:48;;;;;;;1.43;0.80;;;29.10;67.80;;;;;;4963369;28;20484;-79
2021/09/07 12:44:17;;;;;;;1.47;0.80;;;29.10;68.80;;;;;;4971363;28;20612;-78
2021/09/07 12:46:44;;;;;;;1.47;0.80;;;29.30;67.00;;;;;;4953164;28;20481;-81
2021/09/07 12:49:11;;;;;;;1.50;0.80;;;29.50;68.00;;;;;;4973511;28;20672;-78
2021/09/07 12:51:53;;;;;;;1.43;0.80;;;29.60;67.40;;;;;;4965612;28;20495;-80
2021/09/07 12:54:20;;;;;;;1.40;0.80;;;29.70;67.70;;;;;;4975065;28;20548;-80
2021/09/07 12:56:48;;;;;;;1.43;0.80;;;29.80;65.90;;;;;;4973248;28;20508;-79
2021/09/07 12:59:16;;;;;;;1.50;0.90;;;29.70;66.90;;;;;;4979289;28;20619;-80
2021/09/07 13:01:45;;;;;;;1.50;0.90;;;29.80;66.10;;;;;;4951734;28;20690;-79